Time;durP1;ratioP1;P1;durP2;ratioP2;P2;SDS_P1;SDS_P2;PMS_P1;PMS_P2;Temp;Humidity;BMP_temperature;BMP_pressure;BME280_temperature;BME280_humidity;BME280_pressure;Samples;Min_cycle;Max_cycle;Signal;HPM_P1;HPM_P2
2023/06/22 00:00:50;;;;;;;4.03;3.60;;;22.70;99.90;;;;;;5019383;28;20025;-69
2023/06/22 00:03:18;;;;;;;3.13;2.80;;;22.70;99.90;;;;;;5020131;28;20030;-70
2023/06/22 00:05:44;;;;;;;3.85;3.50;;;22.70;99.90;;;;;;5022062;28;20038;-69
2023/06/22 00:08:10;;;;;;;4.32;3.90;;;22.70;99.90;;;;;;5020097;28;20030;-69
2023/06/22 00:10:35;;;;;;;4.50;3.88;;;22.60;99.90;;;;;;5018653;28;20061;-69
2023/06/22 00:13:01;;;;;;;3.53;3.28;;;22.50;99.90;;;;;;5021374;28;20033;-69
2023/06/22 00:15:27;;;;;;;3.85;3.42;;;22.50;99.90;;;;;;5020163;28;20488;-69
2023/06/22 00:17:53;;;;;;;6.22;3.65;;;22.50;99.90;;;;;;5018924;28;20022;-69
2023/06/22 00:20:18;;;;;;;4.47;4.07;;;22.50;99.90;;;;;;5021505;28;20048;-69
2023/06/22 00:22:44;;;;;;;3.90;3.40;;;22.50;99.90;;;;;;5018689;28;20020;-69
2023/06/22 00:25:11;;;;;;;4.50;3.63;;;22.40;99.90;;;;;;5020132;28;20029;-69
2023/06/22 00:27:37;;;;;;;4.15;3.80;;;22.40;99.90;;;;;;5019274;28;20547;-69
2023/06/22 00:30:03;;;;;;;5.22;3.53;;;22.40;99.90;;;;;;5019742;28;20030;-69
2023/06/22 00:32:29;;;;;;;4.53;3.30;;;22.40;99.90;;;;;;5019057;28;20033;-69
2023/06/22 00:34:55;;;;;;;4.07;3.65;;;22.20;99.90;;;;;;5019496;28;20032;-69
2023/06/22 00:37:25;;;;;;;4.05;3.75;;;22.00;99.90;;;;;;5018607;28;20241;-69
2023/06/22 00:39:51;;;;;;;4.10;3.70;;;22.00;99.90;;;;;;5022097;28;20026;-69
2023/06/22 00:42:17;;;;;;;4.65;3.85;;;22.00;99.90;;;;;;5020179;28;20030;-69
2023/06/22 00:44:44;;;;;;;4.78;3.88;;;22.00;99.90;;;;;;5020010;28;20031;-69
2023/06/22 00:47:12;;;;;;;5.07;3.83;;;22.00;99.90;;;;;;5021808;28;20034;-69
2023/06/22 00:49:38;;;;;;;4.05;3.70;;;22.00;99.90;;;;;;5027967;28;20029;-69
2023/06/22 00:52:08;;;;;;;4.78;3.40;;;22.10;99.90;;;;;;5020746;28;20025;-69
2023/06/22 00:54:36;;;;;;;4.80;3.92;;;22.00;99.90;;;;;;5021440;28;20022;-69
2023/06/22 00:57:02;;;;;;;4.07;3.60;;;22.10;99.90;;;;;;5022669;28;20035;-69
2023/06/22 00:59:28;;;;;;;7.00;4.13;;;22.00;99.90;;;;;;5022371;28;20057;-69
2023/06/22 01:01:54;;;;;;;7.78;4.13;;;22.00;99.90;;;;;;5019949;28;20034;-69
2023/06/22 01:04:24;;;;;;;7.15;4.30;;;22.00;99.90;;;;;;5020657;28;20505;-69
2023/06/22 01:07:05;;;;;;;5.05;3.95;;;22.00;99.90;;;;;;5028417;28;20056;-69
2023/06/22 01:09:35;;;;;;;4.78;3.95;;;22.00;99.90;;;;;;5028722;27;20082;-69
2023/06/22 01:12:05;;;;;;;5.55;4.32;;;22.00;99.90;;;;;;5024019;28;20022;-69
2023/06/22 01:14:43;;;;;;;4.00;3.70;;;22.00;99.90;;;;;;5022474;28;20045;-69
2023/06/22 01:17:12;;;;;;;10.15;4.88;;;22.00;99.90;;;;;;5021944;28;20113;-69
2023/06/22 01:19:56;;;;;;;7.72;4.35;;;22.00;99.90;;;;;;5022702;28;20034;-69
2023/06/22 01:22:30;;;;;;;6.00;4.75;;;22.00;99.90;;;;;;5024797;28;20029;-69
2023/06/22 01:25:33;;;;;;;6.57;4.07;;;21.90;99.90;;;;;;5024221;28;20061;-69
2023/06/22 01:28:20;;;;;;;4.72;4.30;;;21.90;99.90;;;;;;5022540;28;20049;-69
2023/06/22 01:30:48;;;;;;;5.35;4.40;;;21.90;99.90;;;;;;5017700;28;20026;-69
2023/06/22 01:33:15;;;;;;;5.22;4.72;;;21.90;99.90;;;;;;5017911;28;20026;-69
2023/06/22 01:35:42;;;;;;;8.07;4.45;;;21.90;99.90;;;;;;5020065;28;20398;-69
2023/06/22 01:38:09;;;;;;;6.68;4.93;;;21.90;99.90;;;;;;5021619;28;20098;-69
2023/06/22 01:40:36;;;;;;;5.40;4.38;;;21.90;99.90;;;;;;5018695;28;20101;-69
2023/06/22 01:43:03;;;;;;;6.28;5.32;;;21.80;99.90;;;;;;5099584;27;20030;-69
2023/06/22 01:45:29;;;;;;;6.90;5.25;;;21.80;99.90;;;;;;5015690;28;20424;-69
2023/06/22 01:47:55;;;;;;;8.13;6.78;;;21.90;99.90;;;;;;5023561;28;20044;-69
2023/06/22 01:50:21;;;;;;;8.63;6.53;;;21.90;99.90;;;;;;5030767;28;20029;-69
2023/06/22 01:52:47;;;;;;;6.93;6.25;;;21.90;99.90;;;;;;5017231;28;20030;-69
2023/06/22 01:55:12;;;;;;;7.63;6.47;;;21.90;99.90;;;;;;5017024;28;20534;-69
2023/06/22 01:57:39;;;;;;;7.68;6.40;;;21.90;99.90;;;;;;5029222;28;20045;-69
2023/06/22 02:00:09;;;;;;;10.35;7.00;;;21.90;99.90;;;;;;5021375;28;20048;-69
2023/06/22 02:03:12;;;;;;;9.98;6.63;;;21.80;99.90;;;;;;5023204;28;20021;-69
2023/06/22 02:06:02;;;;;;;8.13;7.32;;;21.80;99.90;;;;;;5043582;28;20107;-70
2023/06/22 02:08:31;;;;;;;9.50;8.10;;;21.80;99.90;;;;;;5015118;28;20040;-69
2023/06/22 02:10:59;;;;;;;12.85;7.85;;;21.80;99.90;;;;;;5018998;28;20061;-69
2023/06/22 02:13:26;;;;;;;10.45;8.10;;;21.90;99.90;;;;;;5017627;28;20028;-69
2023/06/22 02:15:52;;;;;;;9.43;8.40;;;21.80;99.90;;;;;;5015548;28;20021;-70
2023/06/22 02:18:17;;;;;;;10.10;8.60;;;21.80;99.90;;;;;;5017417;28;20367;-69
2023/06/22 02:20:43;;;;;;;12.82;10.25;;;21.80;99.90;;;;;;5020366;28;20022;-70
2023/06/22 02:23:09;;;;;;;11.68;10.48;;;21.80;99.90;;;;;;5018226;28;20030;-69
2023/06/22 02:25:35;;;;;;;10.10;9.00;;;21.80;99.90;;;;;;5014939;28;20061;-69
2023/06/22 02:28:01;;;;;;;10.68;8.65;;;21.80;99.90;;;;;;5026462;28;20420;-69
2023/06/22 02:30:27;;;;;;;12.65;9.35;;;21.90;99.90;;;;;;5021566;28;20066;-69
2023/06/22 02:32:58;;;;;;;11.25;9.57;;;21.90;99.90;;;;;;5019427;28;20017;-70
2023/06/22 02:35:26;;;;;;;11.40;10.18;;;21.90;99.90;;;;;;5025290;28;20057;-69
2023/06/22 02:37:52;;;;;;;13.77;12.40;;;21.90;99.90;;;;;;5025892;28;20493;-70
2023/06/22 02:40:17;;;;;;;13.07;10.95;;;21.90;99.90;;;;;;5017559;28;20061;-69
2023/06/22 02:42:43;;;;;;;13.00;10.93;;;21.90;99.90;;;;;;5014603;28;20040;-69
2023/06/22 02:45:09;;;;;;;14.70;12.60;;;21.90;99.90;;;;;;5017928;28;20061;-69
2023/06/22 02:47:35;;;;;;;16.70;11.57;;;21.90;99.90;;;;;;5021988;28;20497;-69
2023/06/22 02:50:01;;;;;;;15.13;9.90;;;21.80;99.90;;;;;;5019857;28;20058;-69
2023/06/22 02:52:27;;;;;;;14.73;10.10;;;21.80;99.90;;;;;;5015502;28;20064;-70
2023/06/22 02:54:52;;;;;;;12.73;10.73;;;21.80;99.90;;;;;;5016168;28;20021;-69
2023/06/22 02:57:18;;;;;;;14.60;11.65;;;21.80;99.90;;;;;;5016245;28;20030;-69
2023/06/22 02:59:43;;;;;;;11.68;10.48;;;21.60;99.90;;;;;;5022431;28;20041;-69
2023/06/22 03:02:09;;;;;;;12.05;9.73;;;21.50;99.90;;;;;;5020430;28;20029;-70
2023/06/22 03:04:37;;;;;;;13.38;9.88;;;21.40;99.90;;;;;;5023265;28;20380;-69
2023/06/22 03:07:03;;;;;;;18.40;13.15;;;21.50;99.90;;;;;;5022139;28;20038;-69
2023/06/22 03:09:29;;;;;;;11.48;9.55;;;21.50;99.90;;;;;;5015972;28;20037;-70
2023/06/22 03:11:55;;;;;;;13.82;11.25;;;21.50;99.90;;;;;;5026820;28;20021;-69
2023/06/22 03:14:21;;;;;;;17.77;12.75;;;21.60;99.90;;;;;;5017514;28;20500;-70
2023/06/22 03:16:47;;;;;;;16.67;12.52;;;21.60;99.90;;;;;;5013809;28;20053;-70
2023/06/22 03:19:13;;;;;;;16.58;14.38;;;21.50;99.90;;;;;;5026083;28;20025;-70
2023/06/22 03:21:39;;;;;;;18.70;15.00;;;21.40;99.90;;;;;;5016145;28;20026;-70
2023/06/22 03:24:06;;;;;;;18.40;14.20;;;21.40;99.90;;;;;;5018880;28;20028;-70
2023/06/22 03:26:32;;;;;;;22.92;15.77;;;21.50;99.90;;;;;;5020746;28;20045;-70
2023/06/22 03:28:57;;;;;;;21.27;16.65;;;21.40;99.90;;;;;;5020463;28;20100;-70
2023/06/22 03:31:23;;;;;;;20.15;16.13;;;21.40;99.90;;;;;;5018182;28;20033;-70
2023/06/22 03:33:50;;;;;;;19.30;16.38;;;21.40;99.90;;;;;;5019341;28;20030;-70
2023/06/22 03:36:19;;;;;;;20.30;15.95;;;21.50;99.90;;;;;;5018049;28;20041;-70
2023/06/22 03:38:46;;;;;;;21.63;16.30;;;21.40;99.90;;;;;;5023807;28;20086;-70
2023/06/22 03:41:12;;;;;;;22.70;17.42;;;21.40;99.90;;;;;;5017887;28;20026;-70
2023/06/22 03:43:38;;;;;;;20.55;17.67;;;21.50;99.90;;;;;;5013207;28;20086;-70
2023/06/22 03:46:03;;;;;;;21.02;17.25;;;21.50;99.90;;;;;;5014258;28;20029;-70
2023/06/22 03:48:29;;;;;;;21.95;16.23;;;21.50;99.90;;;;;;5017122;28;20405;-70
2023/06/22 03:50:54;;;;;;;21.88;18.27;;;21.50;99.90;;;;;;5023476;28;20033;-70
2023/06/22 03:53:20;;;;;;;22.10;17.17;;;21.50;99.90;;;;;;5018268;28;20030;-70
2023/06/22 03:55:51;;;;;;;22.33;16.58;;;21.50;99.90;;;;;;5026962;28;20022;-70
2023/06/22 03:58:18;;;;;;;23.65;17.63;;;21.60;99.90;;;;;;5015777;28;20026;-70
2023/06/22 04:00:47;;;;;;;20.38;16.55;;;21.60;99.90;;;;;;5021000;28;20110;-70
2023/06/22 04:03:13;;;;;;;20.70;17.70;;;21.60;99.90;;;;;;5021112;28;20019;-70
2023/06/22 04:05:40;;;;;;;21.23;18.88;;;21.60;99.90;;;;;;5021414;28;20381;-70
2023/06/22 04:08:06;;;;;;;23.75;18.27;;;21.60;99.90;;;;;;5026205;28;20041;-70
2023/06/22 04:10:32;;;;;;;23.52;18.75;;;21.60;99.90;;;;;;5020532;28;20101;-70
2023/06/22 04:12:57;;;;;;;20.13;17.98;;;21.60;99.90;;;;;;5027493;28;20060;-70
2023/06/22 04:15:23;;;;;;;20.02;17.42;;;21.60;99.90;;;;;;5018285;28;20022;-70
2023/06/22 04:17:48;;;;;;;21.73;19.30;;;21.60;99.90;;;;;;5022167;28;20033;-70
2023/06/22 04:20:14;;;;;;;23.20;19.02;;;21.70;99.90;;;;;;5023338;28;20014;-70
2023/06/22 04:22:40;;;;;;;22.60;19.02;;;21.70;99.90;;;;;;5019857;28;20473;-70
2023/06/22 04:25:07;;;;;;;22.10;19.10;;;21.70;99.90;;;;;;5023951;28;20656;-70
2023/06/22 04:27:37;;;;;;;23.50;20.48;;;21.70;99.90;;;;;;5019839;28;20045;-70
2023/06/22 04:30:06;;;;;;;24.60;19.75;;;21.80;99.90;;;;;;5020760;28;20017;-70
2023/06/22 04:32:32;;;;;;;22.45;18.13;;;21.80;99.90;;;;;;5019527;28;20034;-70
2023/06/22 04:35:00;;;;;;;21.08;17.67;;;21.80;99.90;;;;;;5024638;28;20045;-70
2023/06/22 04:37:26;;;;;;;21.92;19.05;;;21.70;99.90;;;;;;5016271;28;20026;-70
2023/06/22 04:39:52;;;;;;;24.77;19.02;;;21.70;99.90;;;;;;5027770;28;20033;-70
2023/06/22 04:42:18;;;;;;;23.75;20.20;;;21.80;99.90;;;;;;5020824;28;20033;-70
2023/06/22 04:44:44;;;;;;;23.95;20.05;;;21.80;99.90;;;;;;5022739;28;20022;-70
2023/06/22 04:47:09;;;;;;;25.25;20.38;;;21.90;99.90;;;;;;5018841;28;20533;-70
2023/06/22 04:49:37;;;;;;;22.80;19.70;;;21.90;99.90;;;;;;5025981;28;20159;-70
2023/06/22 04:52:07;;;;;;;23.55;18.65;;;21.90;99.90;;;;;;5023124;28;20388;-70
2023/06/22 04:54:33;;;;;;;26.02;17.92;;;21.90;99.90;;;;;;5029056;28;20096;-70
2023/06/22 04:57:00;;;;;;;23.48;17.92;;;21.90;99.90;;;;;;5027972;28;20469;-70
2023/06/22 04:59:29;;;;;;;19.33;16.38;;;21.90;99.90;;;;;;5024282;28;20063;-70
2023/06/22 05:01:56;;;;;;;21.90;18.05;;;22.00;99.90;;;;;;5019517;28;20525;-70
2023/06/22 05:04:25;;;;;;;22.80;17.85;;;22.00;99.90;;;;;;5021813;28;20029;-70
2023/06/22 05:06:52;;;;;;;22.00;18.83;;;22.00;99.90;;;;;;5021815;28;20041;-70
2023/06/22 05:09:18;;;;;;;19.25;17.17;;;22.10;99.90;;;;;;5025834;28;20062;-69
2023/06/22 05:11:44;;;;;;;19.92;16.70;;;22.10;99.90;;;;;;5022471;28;20488;-69
2023/06/22 05:14:10;;;;;;;18.92;17.08;;;22.10;99.90;;;;;;5021679;28;20026;-69
2023/06/22 05:16:42;;;;;;;19.58;17.42;;;22.10;99.90;;;;;;5019415;28;20036;-69
2023/06/22 05:19:08;;;;;;;22.83;17.92;;;22.10;99.90;;;;;;5025993;28;20040;-69
2023/06/22 05:21:33;;;;;;;18.52;16.27;;;22.10;99.90;;;;;;5022989;28;20385;-69
2023/06/22 05:24:02;;;;;;;19.48;17.35;;;22.10;99.90;;;;;;5020453;28;20470;-69
2023/06/22 05:26:30;;;;;;;20.45;16.60;;;22.10;99.90;;;;;;5020554;28;20034;-70
2023/06/22 05:28:56;;;;;;;21.08;16.70;;;22.10;99.90;;;;;;5024992;28;20033;-70
2023/06/22 05:31:22;;;;;;;36.03;17.50;;;22.00;99.90;;;;;;5026152;28;20492;-70
2023/06/22 05:33:51;;;;;;;21.60;17.63;;;22.10;99.90;;;;;;5029602;28;20025;-69
2023/06/22 05:36:16;;;;;;;18.80;14.95;;;22.10;99.90;;;;;;5020858;28;20108;-69
2023/06/22 05:38:42;;;;;;;17.25;15.35;;;22.10;99.90;;;;;;5023460;28;20487;-70
2023/06/22 05:41:08;;;;;;;16.70;14.93;;;22.10;99.90;;;;;;5027643;28;20137;-69
2023/06/22 05:43:34;;;;;;;18.40;14.65;;;22.10;99.90;;;;;;5019817;28;20041;-69
2023/06/22 05:46:01;;;;;;;17.52;15.15;;;22.10;99.90;;;;;;5024076;28;20418;-69
2023/06/22 05:48:27;;;;;;;19.95;16.70;;;22.20;99.90;;;;;;5018631;28;20034;-69
2023/06/22 05:50:53;;;;;;;19.88;16.25;;;22.20;99.90;;;;;;5023707;28;20029;-69
2023/06/22 05:53:19;;;;;;;14.60;12.98;;;22.20;99.90;;;;;;5022950;28;20120;-69
2023/06/22 05:55:45;;;;;;;19.77;15.70;;;22.20;99.90;;;;;;5029998;28;20030;-70
2023/06/22 05:58:11;;;;;;;20.25;15.25;;;22.20;99.90;;;;;;5019185;28;20022;-71
2023/06/22 06:00:37;;;;;;;19.35;16.73;;;22.20;99.90;;;;;;5028409;28;20726;-70
2023/06/22 06:03:03;;;;;;;19.33;17.35;;;22.20;99.90;;;;;;5026866;28;20037;-70
2023/06/22 06:05:30;;;;;;;18.55;15.95;;;22.20;99.90;;;;;;5020054;28;20496;-70
2023/06/22 06:07:56;;;;;;;20.50;17.65;;;22.30;99.90;;;;;;5023173;28;20082;-70
2023/06/22 06:10:21;;;;;;;21.40;18.48;;;22.30;99.90;;;;;;5021084;28;20037;-70
2023/06/22 06:12:47;;;;;;;20.27;17.73;;;22.40;99.90;;;;;;5022972;28;20037;-70
2023/06/22 06:15:13;;;;;;;20.42;16.67;;;22.40;99.90;;;;;;5023025;28;20029;-70
2023/06/22 06:17:49;;;;;;;21.50;15.63;;;22.40;99.90;;;;;;5024932;28;20527;-69
2023/06/22 06:20:16;;;;;;;23.65;18.30;;;22.50;99.90;;;;;;5017262;28;20036;-69
2023/06/22 06:22:42;;;;;;;26.20;19.45;;;22.50;99.90;;;;;;5023630;28;20112;-69
2023/06/22 06:25:09;;;;;;;23.08;19.55;;;22.50;99.90;;;;;;5022956;28;20033;-69
2023/06/22 06:27:34;;;;;;;23.98;20.17;;;22.50;99.90;;;;;;5018182;28;20050;-69
2023/06/22 06:30:00;;;;;;;22.33;19.33;;;22.50;99.90;;;;;;5023121;28;20033;-71
2023/06/22 06:32:25;;;;;;;22.65;19.02;;;22.50;99.90;;;;;;5022568;28;20469;-70
2023/06/22 06:34:51;;;;;;;17.55;15.75;;;22.60;99.90;;;;;;5020131;28;20104;-71
2023/06/22 06:37:18;;;;;;;21.63;17.05;;;22.60;99.90;;;;;;5016969;28;20034;-71
2023/06/22 06:39:44;;;;;;;19.25;16.58;;;22.70;99.90;;;;;;5019868;28;20036;-70
2023/06/22 06:42:11;;;;;;;21.02;17.33;;;22.60;99.90;;;;;;5016262;28;20034;-71
2023/06/22 06:44:37;;;;;;;18.33;15.27;;;22.50;99.90;;;;;;5018428;28;20105;-71
2023/06/22 06:47:04;;;;;;;20.73;17.27;;;22.60;99.90;;;;;;5020542;28;20152;-71
2023/06/22 06:49:30;;;;;;;19.45;17.45;;;22.50;99.90;;;;;;5017740;28;20022;-71
2023/06/22 06:51:55;;;;;;;22.98;19.23;;;22.60;99.90;;;;;;5014663;28;20047;-71
2023/06/22 06:54:21;;;;;;;21.63;18.77;;;22.60;99.90;;;;;;5023905;28;20022;-71
2023/06/22 06:56:48;;;;;;;21.50;18.25;;;22.80;99.90;;;;;;5023091;28;20056;-71
2023/06/22 06:59:15;;;;;;;22.83;19.88;;;22.80;99.90;;;;;;5026607;28;20017;-70
2023/06/22 07:01:41;;;;;;;24.10;19.73;;;22.70;99.90;;;;;;5018586;28;20034;-71
2023/06/22 07:04:07;;;;;;;23.50;20.05;;;22.80;99.90;;;;;;5017937;28;20091;-70
2023/06/22 07:06:33;;;;;;;22.15;19.75;;;22.80;99.90;;;;;;5022945;28;20072;-70
2023/06/22 07:08:59;;;;;;;23.58;19.25;;;22.80;99.90;;;;;;5022259;28;20039;-71
2023/06/22 07:11:25;;;;;;;21.95;18.88;;;22.80;99.90;;;;;;5020664;28;20083;-71
2023/06/22 07:13:51;;;;;;;21.30;19.02;;;22.80;99.90;;;;;;5019744;28;20427;-71
2023/06/22 07:16:17;;;;;;;20.58;17.45;;;22.60;99.90;;;;;;5018326;28;20025;-71
2023/06/22 07:18:42;;;;;;;27.27;19.08;;;22.50;99.90;;;;;;5024447;28;20552;-71
2023/06/22 07:21:09;;;;;;;20.48;17.60;;;22.60;99.90;;;;;;5019721;28;20033;-71
2023/06/22 07:23:34;;;;;;;19.15;16.83;;;22.80;99.90;;;;;;5025209;28;20056;-71
2023/06/22 07:26:06;;;;;;;21.67;17.35;;;23.00;99.90;;;;;;5015384;28;20081;-71
2023/06/22 07:28:36;;;;;;;24.67;20.08;;;23.10;99.90;;;;;;5022891;28;20046;-70
2023/06/22 07:31:03;;;;;;;24.05;18.15;;;23.10;99.90;;;;;;5013001;28;20047;-71
2023/06/22 07:33:29;;;;;;;23.20;19.42;;;23.20;99.90;;;;;;5025153;28;20415;-71
2023/06/22 07:35:55;;;;;;;22.40;18.77;;;23.20;99.90;;;;;;5014137;28;20135;-71
2023/06/22 07:38:20;;;;;;;21.77;18.83;;;23.30;99.90;;;;;;5023670;28;20158;-70
2023/06/22 07:40:47;;;;;;;23.02;20.60;;;23.30;99.90;;;;;;5021489;28;20042;-71
2023/06/22 07:43:13;;;;;;;22.60;19.90;;;23.30;99.90;;;;;;5026175;28;20028;-71
2023/06/22 07:45:40;;;;;;;23.90;20.50;;;23.30;99.90;;;;;;5020942;28;20029;-70
2023/06/22 07:48:07;;;;;;;21.90;19.77;;;23.40;99.90;;;;;;5012331;28;20065;-71
2023/06/22 07:50:32;;;;;;;26.30;21.92;;;23.40;99.90;;;;;;5016501;28;20026;-70
2023/06/22 07:52:58;;;;;;;21.42;19.23;;;23.40;99.90;;;;;;5026650;28;20047;-70
2023/06/22 07:55:24;;;;;;;23.75;19.42;;;23.40;99.90;;;;;;5017494;28;20481;-71
2023/06/22 07:57:51;;;;;;;24.85;20.85;;;23.40;99.90;;;;;;5015435;28;20032;-70
2023/06/22 08:00:17;;;;;;;24.83;19.77;;;23.40;99.90;;;;;;5017164;28;20026;-71
2023/06/22 08:02:45;;;;;;;21.95;19.75;;;23.40;99.90;;;;;;5018526;28;20022;-71
2023/06/22 08:05:12;;;;;;;23.77;18.55;;;23.30;99.90;;;;;;5016665;28;20450;-71
2023/06/22 08:07:38;;;;;;;25.70;18.00;;;23.20;99.90;;;;;;5015815;28;20038;-71
2023/06/22 08:10:05;;;;;;;19.13;17.13;;;23.20;99.90;;;;;;5017473;28;20071;-71
2023/06/22 08:12:31;;;;;;;20.27;16.88;;;23.20;99.90;;;;;;5021589;28;20032;-71
2023/06/22 08:14:57;;;;;;;21.42;15.88;;;23.20;99.90;;;;;;5018790;28;20053;-70
2023/06/22 08:17:24;;;;;;;17.80;15.52;;;23.30;99.90;;;;;;5012877;28;20022;-71
2023/06/22 08:19:50;;;;;;;17.35;15.45;;;23.20;99.90;;;;;;5017137;28;20030;-70
2023/06/22 08:22:16;;;;;;;20.02;15.13;;;23.40;99.90;;;;;;4987199;27;20037;-71
2023/06/22 08:24:42;;;;;;;21.27;17.02;;;23.50;99.90;;;;;;5015187;28;20026;-70
2023/06/22 08:27:09;;;;;;;20.20;16.45;;;23.50;99.90;;;;;;5019981;28;20435;-69
2023/06/22 08:29:37;;;;;;;21.95;17.73;;;23.40;99.90;;;;;;5019880;27;20025;-69
2023/06/22 08:32:03;;;;;;;24.23;18.08;;;23.50;99.90;;;;;;5020674;27;20124;-69
2023/06/22 08:34:28;;;;;;;25.48;19.95;;;23.60;99.90;;;;;;5020199;27;20090;-70
2023/06/22 08:36:54;;;;;;;21.67;19.33;;;23.50;99.90;;;;;;5021860;28;20025;-69
2023/06/22 08:39:20;;;;;;;23.95;18.75;;;23.60;99.90;;;;;;5022811;28;20078;-69
2023/06/22 08:41:47;;;;;;;23.42;18.60;;;23.70;99.90;;;;;;5019943;28;20022;-69
2023/06/22 08:44:13;;;;;;;23.85;19.65;;;23.70;99.90;;;;;;5021788;28;20072;-69
2023/06/22 08:46:40;;;;;;;22.85;17.73;;;23.70;99.90;;;;;;5022628;28;20105;-68
2023/06/22 08:49:06;;;;;;;27.65;18.60;;;23.80;99.90;;;;;;5021215;28;20036;-68
2023/06/22 08:51:32;;;;;;;21.65;18.75;;;23.80;99.90;;;;;;5021910;28;20046;-68
2023/06/22 08:53:58;;;;;;;26.92;21.45;;;23.80;99.90;;;;;;5021169;28;20507;-69
2023/06/22 08:56:23;;;;;;;24.40;21.63;;;23.80;99.90;;;;;;5019435;27;20018;-69
2023/06/22 08:58:49;;;;;;;28.70;25.05;;;23.70;99.90;;;;;;5022551;27;20557;-68
2023/06/22 09:01:15;;;;;;;26.52;23.02;;;23.60;99.90;;;;;;5021262;28;20082;-68
2023/06/22 09:03:41;;;;;;;27.05;22.15;;;23.60;99.90;;;;;;5018672;28;20030;-69
2023/06/22 09:06:09;;;;;;;24.30;21.60;;;23.60;99.90;;;;;;5019217;27;20094;-69
2023/06/22 09:08:35;;;;;;;25.65;22.15;;;23.50;99.90;;;;;;5021775;28;20025;-69
2023/06/22 09:11:00;;;;;;;26.90;23.80;;;23.40;99.90;;;;;;5021321;28;20025;-69
2023/06/22 09:13:27;;;;;;;29.63;23.65;;;23.50;99.90;;;;;;5020913;28;20033;-69
2023/06/22 09:15:53;;;;;;;26.95;22.92;;;23.40;99.90;;;;;;5024393;28;20037;-70
2023/06/22 09:18:19;;;;;;;24.40;20.73;;;23.40;99.90;;;;;;5020688;28;20358;-69
2023/06/22 09:20:45;;;;;;;26.33;23.52;;;23.40;99.90;;;;;;5019704;28;20544;-69
2023/06/22 09:23:11;;;;;;;26.77;23.95;;;23.40;99.90;;;;;;5022066;28;20027;-70
2023/06/22 09:25:36;;;;;;;27.17;21.65;;;23.30;99.90;;;;;;5020558;27;20431;-69
2023/06/22 09:28:02;;;;;;;26.92;23.80;;;23.30;99.90;;;;;;5021675;28;20076;-70
2023/06/22 09:30:28;;;;;;;28.40;25.33;;;23.20;99.90;;;;;;5021888;28;20063;-68
2023/06/22 09:32:54;;;;;;;28.20;24.48;;;23.30;99.90;;;;;;5021223;28;20029;-69
2023/06/22 09:35:20;;;;;;;29.33;24.08;;;23.20;99.90;;;;;;5021000;28;20029;-69
2023/06/22 09:37:45;;;;;;;31.02;24.33;;;23.30;99.90;;;;;;5022852;28;20033;-69
2023/06/22 09:40:12;;;;;;;27.33;23.65;;;23.30;99.90;;;;;;5020007;28;20355;-70
2023/06/22 09:42:39;;;;;;;26.83;23.90;;;23.40;99.90;;;;;;5020190;28;20025;-68
2023/06/22 09:45:05;;;;;;;28.63;25.35;;;23.40;99.90;;;;;;5019684;28;20044;-69
2023/06/22 09:47:31;;;;;;;30.58;25.88;;;23.40;99.90;;;;;;5020234;28;20033;-69
2023/06/22 09:49:59;;;;;;;30.38;26.52;;;23.40;99.90;;;;;;5019679;28;20028;-70
2023/06/22 09:52:25;;;;;;;32.85;27.92;;;23.40;99.90;;;;;;5020878;28;20035;-69
2023/06/22 09:54:51;;;;;;;26.92;23.80;;;23.50;99.90;;;;;;5021367;28;20030;-69
2023/06/22 09:57:16;;;;;;;26.67;23.15;;;23.50;99.90;;;;;;5020322;28;20381;-68
2023/06/22 09:59:42;;;;;;;26.23;23.33;;;23.60;99.90;;;;;;5018395;27;20603;-69
2023/06/22 10:02:08;;;;;;;28.23;24.58;;;23.60;99.90;;;;;;5020826;28;20389;-69
2023/06/22 10:04:34;;;;;;;28.20;22.63;;;23.60;99.90;;;;;;5020494;28;20584;-70
2023/06/22 10:07:01;;;;;;;28.27;24.02;;;23.50;99.90;;;;;;5021571;28;20042;-69
2023/06/22 10:09:26;;;;;;;27.88;24.20;;;23.50;99.90;;;;;;5019732;28;20017;-69
2023/06/22 10:11:52;;;;;;;29.38;24.50;;;23.60;99.90;;;;;;5020338;28;20593;-70
2023/06/22 10:14:19;;;;;;;29.73;25.00;;;23.50;99.90;;;;;;5024931;28;20408;-69
2023/06/22 10:16:44;;;;;;;28.50;24.38;;;23.40;99.90;;;;;;5019535;28;20049;-69
2023/06/22 10:19:10;;;;;;;29.17;26.00;;;23.50;99.90;;;;;;5020022;28;20029;-69
2023/06/22 10:21:36;;;;;;;30.92;25.38;;;23.50;99.90;;;;;;5021436;28;20053;-69
2023/06/22 10:24:05;;;;;;;26.58;23.77;;;23.50;99.90;;;;;;5022138;28;20025;-69
2023/06/22 10:26:32;;;;;;;29.20;25.35;;;23.50;99.90;;;;;;5017981;28;20090;-69
2023/06/22 10:28:59;;;;;;;28.23;24.75;;;23.60;99.90;;;;;;5023399;28;20022;-69
2023/06/22 10:31:25;;;;;;;28.52;24.38;;;23.50;99.90;;;;;;5020526;28;20033;-69
2023/06/22 10:33:51;;;;;;;30.73;26.52;;;23.50;99.90;;;;;;5019578;28;20032;-68
2023/06/22 10:36:16;;;;;;;36.65;27.50;;;23.40;99.90;;;;;;5018318;28;20075;-69
2023/06/22 10:38:42;;;;;;;37.72;29.65;;;23.50;99.90;;;;;;5017634;28;20465;-69
2023/06/22 10:41:08;;;;;;;36.92;31.98;;;23.40;99.90;;;;;;5018641;27;20465;-69
2023/06/22 10:43:33;;;;;;;40.10;31.65;;;23.50;99.90;;;;;;5019893;28;20029;-69
2023/06/22 10:45:59;;;;;;;45.53;36.53;;;23.50;99.90;;;;;;5017338;28;20117;-68
2023/06/22 10:48:25;;;;;;;46.03;37.33;;;23.50;99.90;;;;;;5019386;28;20064;-69
2023/06/22 10:50:50;;;;;;;41.67;37.13;;;23.40;99.90;;;;;;5019245;28;20030;-69
2023/06/22 10:53:16;;;;;;;45.58;37.50;;;23.40;99.90;;;;;;5018671;28;20397;-69
2023/06/22 10:55:42;;;;;;;49.70;38.55;;;23.50;99.90;;;;;;5018089;28;20029;-69
2023/06/22 10:58:07;;;;;;;48.95;40.85;;;23.40;99.90;;;;;;5018473;28;20026;-71
2023/06/22 11:00:33;;;;;;;53.22;42.60;;;23.50;99.90;;;;;;5017423;28;20029;-70
2023/06/22 11:02:58;;;;;;;48.80;41.08;;;23.40;99.90;;;;;;5018657;28;21519;-68
2023/06/22 11:05:24;;;;;;;49.15;42.65;;;23.30;99.90;;;;;;5019069;27;20040;-70
2023/06/22 11:07:50;;;;;;;53.45;43.72;;;23.20;99.90;;;;;;5018227;28;20029;-70
2023/06/22 11:10:16;;;;;;;49.33;41.15;;;23.30;99.90;;;;;;5019385;28;20021;-71
2023/06/22 11:12:42;;;;;;;53.53;42.17;;;23.40;99.90;;;;;;5019506;28;20025;-70
2023/06/22 11:15:09;;;;;;;64.95;48.50;;;23.30;99.90;;;;;;5017846;28;20022;-71
2023/06/22 11:17:35;;;;;;;51.10;40.88;;;23.30;99.90;;;;;;5018120;28;20033;-72
2023/06/22 11:20:01;;;;;;;58.08;40.83;;;23.30;99.90;;;;;;5020085;28;20402;-71
2023/06/22 11:22:27;;;;;;;65.93;48.58;;;23.30;99.90;;;;;;5017408;28;20103;-72
2023/06/22 11:24:52;;;;;;;56.97;44.83;;;23.30;99.90;;;;;;5017736;27;20052;-72
2023/06/22 11:27:18;;;;;;;74.70;51.55;;;23.20;99.90;;;;;;5015836;28;20461;-72
2023/06/22 11:29:44;;;;;;;54.22;44.20;;;23.20;99.90;;;;;;5019799;27;20485;-73
2023/06/22 11:32:09;;;;;;;54.75;46.35;;;23.10;99.90;;;;;;5018944;28;20017;-71
2023/06/22 11:34:35;;;;;;;52.72;44.65;;;23.20;99.90;;;;;;5020707;28;20589;-71
2023/06/22 11:37:01;;;;;;;56.53;45.13;;;23.10;99.90;;;;;;5019907;28;20029;-73
2023/06/22 11:39:27;;;;;;;55.15;44.45;;;23.10;99.90;;;;;;5019471;28;20039;-70
2023/06/22 11:41:52;;;;;;;57.80;45.33;;;23.10;99.90;;;;;;5018173;28;20032;-71
2023/06/22 11:44:18;;;;;;;58.38;50.28;;;23.00;99.90;;;;;;5019584;27;20026;-71
2023/06/22 11:46:44;;;;;;;52.33;46.50;;;23.10;99.90;;;;;;5017670;28;20524;-71
2023/06/22 11:49:09;;;;;;;47.63;40.25;;;23.10;99.90;;;;;;5020015;28;20435;-71
2023/06/22 11:51:36;;;;;;;59.00;49.88;;;23.20;99.90;;;;;;5019250;28;20016;-70
2023/06/22 11:54:03;;;;;;;52.58;44.00;;;23.10;99.90;;;;;;5019820;27;20034;-72
2023/06/22 11:56:28;;;;;;;50.40;44.85;;;23.10;99.90;;;;;;5018615;28;20018;-69
2023/06/22 11:58:54;;;;;;;49.28;41.95;;;23.10;99.90;;;;;;5018253;28;20036;-69
2023/06/22 12:01:21;;;;;;;50.95;43.75;;;23.20;99.90;;;;;;5020821;28;20101;-70
2023/06/22 12:03:46;;;;;;;53.72;46.15;;;23.20;99.90;;;;;;5017178;28;20342;-71
2023/06/22 12:06:12;;;;;;;47.22;42.03;;;23.10;99.90;;;;;;5017783;28;20040;-70
2023/06/22 12:08:38;;;;;;;50.20;44.83;;;23.10;99.90;;;;;;5018447;28;20045;-69
2023/06/22 12:11:04;;;;;;;61.58;53.90;;;23.20;99.90;;;;;;5018671;28;20749;-70
2023/06/22 12:13:30;;;;;;;54.20;48.15;;;23.10;99.90;;;;;;5018029;28;20117;-69
2023/06/22 12:15:55;;;;;;;55.80;48.65;;;23.00;99.90;;;;;;5021531;28;20025;-69
2023/06/22 12:18:21;;;;;;;52.45;43.67;;;23.10;99.90;;;;;;5018505;28;20086;-69
2023/06/22 12:20:47;;;;;;;47.30;42.17;;;23.10;99.90;;;;;;5017338;28;20030;-69
2023/06/22 12:23:14;;;;;;;44.70;40.00;;;23.10;99.90;;;;;;5017969;28;20029;-70
2023/06/22 12:25:40;;;;;;;40.70;36.25;;;23.10;99.90;;;;;;5018206;28;20430;-70
2023/06/22 12:28:05;;;;;;;43.22;36.83;;;23.10;99.90;;;;;;5017163;28;20037;-70